createdAt,value
2023-03-22T00:01:26.769Z,40.08
2023-03-22T00:04:12.713Z,40.35
2023-03-22T00:06:58.726Z,40.39
2023-03-22T00:09:44.620Z,39.80
2023-03-22T00:12:30.619Z,40.16
2023-03-22T00:15:16.427Z,40.79
2023-03-22T00:18:02.269Z,41.58
2023-03-22T00:20:48.171Z,42.01
2023-03-22T00:23:34.112Z,42.10
2023-03-22T00:26:20.049Z,42.46
2023-03-22T00:29:06.035Z,42.71
2023-03-22T00:31:51.795Z,42.72
2023-03-22T00:34:37.655Z,43.89
2023-03-22T00:37:23.442Z,44.23
2023-03-22T00:40:09.438Z,43.90
2023-03-22T00:42:55.538Z,44.17
2023-03-22T00:45:41.284Z,42.86
2023-03-22T00:48:27.329Z,42.53
2023-03-22T00:51:13.220Z,42.22
2023-03-22T00:53:59.196Z,41.73
2023-03-22T00:56:45.160Z,41.91
2023-03-22T00:59:30.931Z,41.25
2023-03-22T01:02:16.794Z,40.96
2023-03-22T01:05:02.723Z,40.60
2023-03-22T01:07:48.567Z,41.17
2023-03-22T01:10:36.878Z,40.69
2023-03-22T01:13:23.116Z,43.22
2023-03-22T01:16:09.196Z,45.52
2023-03-22T01:18:55.147Z,45.11
2023-03-22T01:21:41.026Z,45.86
2023-03-22T01:24:26.978Z,46.69
2023-03-22T01:27:12.854Z,47.56
2023-03-22T01:29:58.673Z,46.87
2023-03-22T01:32:44.578Z,46.08
2023-03-22T01:35:30.547Z,44.75
2023-03-22T01:38:16.568Z,44.17
2023-03-22T01:41:02.692Z,44.77
2023-03-22T01:43:50.529Z,44.63
2023-03-22T01:46:36.422Z,44.62
2023-03-22T01:49:22.323Z,44.89
2023-03-22T01:52:08.114Z,47.52
2023-03-22T01:54:54.050Z,48.67
2023-03-22T01:57:39.946Z,49.04
2023-03-22T02:00:25.862Z,50.27
2023-03-22T02:03:11.931Z,52.77
2023-03-22T02:05:57.812Z,53.83
2023-03-22T02:08:43.680Z,54.16
2023-03-22T02:11:29.555Z,55.00
2023-03-22T02:14:15.284Z,53.09
2023-03-22T02:17:01.200Z,52.02
2023-03-22T02:19:47.098Z,50.60
2023-03-22T02:22:34.915Z,52.00
2023-03-22T02:25:20.853Z,51.97
2023-03-22T02:28:06.770Z,51.68
2023-03-22T02:30:52.606Z,50.87
2023-03-22T02:33:41.489Z,49.70
2023-03-22T02:36:27.532Z,48.65
2023-03-22T02:39:13.460Z,48.43
2023-03-22T02:41:59.883Z,48.11
2023-03-22T02:44:45.816Z,48.90
2023-03-22T02:47:31.758Z,48.68
2023-03-22T02:50:17.601Z,47.78
2023-03-22T02:53:03.372Z,47.88
2023-03-22T02:55:49.155Z,48.06
2023-03-22T02:58:35.036Z,47.67
2023-03-22T03:01:20.973Z,45.80
2023-03-22T03:04:07.182Z,45.27
2023-03-22T03:06:53.043Z,45.33
2023-03-22T03:09:38.923Z,44.93
2023-03-22T03:12:24.902Z,45.79
2023-03-22T03:15:10.731Z,46.42
2023-03-22T03:17:56.614Z,46.01
2023-03-22T03:20:42.565Z,47.03
2023-03-22T03:23:28.430Z,46.88
2023-03-22T03:26:14.290Z,47.85
2023-03-22T03:29:00.142Z,47.58
2023-03-22T03:31:46.154Z,48.46
2023-03-22T03:34:32.008Z,48.03
2023-03-22T03:37:17.907Z,48.38
2023-03-22T03:40:03.858Z,48.14
2023-03-22T03:42:49.670Z,49.86
2023-03-22T03:45:35.714Z,51.07
2023-03-22T03:48:21.651Z,50.69
2023-03-22T03:51:07.829Z,51.77
2023-03-22T03:53:53.589Z,50.80
2023-03-22T03:56:39.552Z,51.11
2023-03-22T03:59:25.286Z,49.67
2023-03-22T04:02:11.182Z,49.19
2023-03-22T04:04:57.009Z,48.01
2023-03-22T04:07:43.031Z,48.29
2023-03-22T04:10:28.934Z,47.65
2023-03-22T04:13:14.714Z,47.05
2023-03-22T04:16:00.619Z,50.93
2023-03-22T04:18:46.549Z,52.21
2023-03-22T04:21:32.442Z,53.11
2023-03-22T04:24:18.434Z,52.92
2023-03-22T04:27:04.390Z,53.35
2023-03-22T04:29:50.299Z,54.11
2023-03-22T04:32:36.309Z,53.82
2023-03-22T04:35:22.161Z,53.33
2023-03-22T04:38:09.933Z,53.71
2023-03-22T04:40:55.908Z,53.72
2023-03-22T04:43:41.802Z,54.63
2023-03-22T04:46:27.788Z,54.09
2023-03-22T04:49:13.603Z,54.59
2023-03-22T04:51:59.470Z,54.85
2023-03-22T04:54:45.391Z,54.48
2023-03-22T04:57:31.286Z,53.25
2023-03-22T05:00:17.203Z,52.95
2023-03-22T05:03:03.061Z,53.50
2023-03-22T05:05:48.893Z,52.52
2023-03-22T05:08:34.743Z,53.48
2023-03-22T05:11:20.643Z,52.79
2023-03-22T05:14:06.653Z,52.35
2023-03-22T05:16:52.687Z,52.76
2023-03-22T05:19:38.507Z,53.11
2023-03-22T05:22:24.430Z,52.53
2023-03-22T05:25:10.319Z,52.19
2023-03-22T05:27:56.093Z,51.89
2023-03-22T05:30:42.069Z,51.95
2023-03-22T05:33:27.845Z,50.35
2023-03-22T05:36:13.677Z,50.06
2023-03-22T05:38:59.631Z,49.54
2023-03-22T05:41:45.436Z,50.56
2023-03-22T05:44:31.234Z,50.11
2023-03-22T05:47:17.130Z,49.52
2023-03-22T05:50:03.145Z,48.69
2023-03-22T05:52:49.015Z,49.33
2023-03-22T05:55:34.894Z,48.12
2023-03-22T05:58:20.740Z,47.04
2023-03-22T06:01:06.658Z,46.74
2023-03-22T06:03:52.586Z,46.47
2023-03-22T06:06:38.435Z,47.14
2023-03-22T06:09:24.391Z,48.34
2023-03-22T06:12:10.294Z,47.44
2023-03-22T06:14:56.204Z,47.10
2023-03-22T06:17:42.107Z,46.26
2023-03-22T06:20:27.948Z,45.91
2023-03-22T06:23:13.802Z,46.20
2023-03-22T06:25:59.733Z,45.61
2023-03-22T06:28:45.595Z,45.51
2023-03-22T06:31:31.430Z,45.54
2023-03-22T06:34:17.218Z,45.18
2023-03-22T06:37:03.009Z,45.85
2023-03-22T06:39:48.788Z,47.43
2023-03-22T06:42:34.606Z,46.00
2023-03-22T06:45:20.382Z,46.78
2023-03-22T06:48:06.399Z,45.36
2023-03-22T06:50:54.438Z,46.18
2023-03-22T06:53:40.321Z,45.42
2023-03-22T06:56:26.289Z,45.62
2023-03-22T06:59:12.139Z,45.69
2023-03-22T07:01:57.949Z,45.29
2023-03-22T07:04:43.879Z,44.86
2023-03-22T07:07:29.837Z,43.58
2023-03-22T07:10:15.662Z,42.99
2023-03-22T07:13:01.580Z,42.80
2023-03-22T07:15:47.278Z,42.48
2023-03-22T07:18:33.126Z,42.44
2023-03-22T07:21:19.023Z,41.68
2023-03-22T07:24:04.802Z,40.36
2023-03-22T07:26:50.866Z,39.40
2023-03-22T07:29:36.672Z,39.12
2023-03-22T07:32:22.554Z,39.54
2023-03-22T07:35:08.553Z,38.55
2023-03-22T07:37:54.338Z,39.21
2023-03-22T07:40:40.426Z,38.87
2023-03-22T07:43:26.666Z,38.51
2023-03-22T07:46:12.541Z,43.74
2023-03-22T07:48:58.502Z,51.24
2023-03-22T07:51:46.348Z,53.89
2023-03-22T07:54:34.215Z,52.18
2023-03-22T07:57:20.394Z,54.38
2023-03-22T08:00:06.249Z,52.19
2023-03-22T08:02:54.253Z,49.69
2023-03-22T08:05:40.405Z,51.40
2023-03-22T08:08:26.727Z,51.13
2023-03-22T08:11:12.599Z,51.20
2023-03-22T08:13:58.581Z,51.94
2023-03-22T08:16:44.276Z,51.27
2023-03-22T08:19:30.181Z,51.72
2023-03-22T08:22:16.188Z,48.79
2023-03-22T08:25:02.034Z,47.86
2023-03-22T08:27:47.960Z,45.72
2023-03-22T08:30:33.821Z,41.52
2023-03-22T08:33:19.851Z,39.82
2023-03-22T08:36:05.885Z,39.75
2023-03-22T08:38:51.765Z,41.43
2023-03-22T08:41:37.621Z,39.67
2023-03-22T08:44:23.583Z,40.07
2023-03-22T08:47:09.289Z,39.60
2023-03-22T08:49:55.200Z,38.60
2023-03-22T08:52:41.021Z,38.20
2023-03-22T08:55:27.040Z,38.12
2023-03-22T08:58:13.039Z,38.01
2023-03-22T09:01:00.879Z,38.79
2023-03-22T09:03:46.906Z,38.55
2023-03-22T09:06:32.927Z,37.28
2023-03-22T09:09:18.746Z,36.66
2023-03-22T09:12:04.509Z,37.35
2023-03-22T09:14:50.266Z,37.36
2023-03-22T09:17:36.211Z,38.33
2023-03-22T09:20:22.089Z,43.38
2023-03-22T09:23:08.020Z,46.62
2023-03-22T09:25:53.971Z,47.00
2023-03-22T09:28:40.001Z,47.48
2023-03-22T09:31:25.888Z,47.38
2023-03-22T09:34:11.844Z,48.96
2023-03-22T09:36:58.604Z,47.31
2023-03-22T09:39:44.546Z,45.17
2023-03-22T09:42:30.375Z,42.94
2023-03-22T09:45:16.264Z,43.22
2023-03-22T09:48:02.239Z,40.92
2023-03-22T09:50:48.331Z,43.00
2023-03-22T09:53:34.225Z,42.37
2023-03-22T09:56:20.197Z,40.94
2023-03-22T09:59:06.007Z,39.64
2023-03-22T10:01:52.018Z,40.60
2023-03-22T10:04:38.532Z,38.17
2023-03-22T10:07:24.310Z,38.76
2023-03-22T10:10:10.208Z,37.36
2023-03-22T10:12:56.508Z,38.18
2023-03-22T10:15:42.931Z,38.90
2023-03-22T10:18:28.924Z,36.18
2023-03-22T10:21:14.750Z,37.88
2023-03-22T10:24:00.688Z,36.93
2023-03-22T10:26:46.671Z,37.15
2023-03-22T10:29:32.527Z,37.94
2023-03-22T10:32:18.394Z,36.83
2023-03-22T10:35:04.300Z,37.55
2023-03-22T10:37:50.115Z,35.24
2023-03-22T10:40:35.943Z,35.23
2023-03-22T10:43:21.965Z,34.34
2023-03-22T10:46:07.928Z,33.60
2023-03-22T10:48:53.740Z,34.36
2023-03-22T10:51:39.629Z,34.65
2023-03-22T10:54:26.211Z,34.15
2023-03-22T10:57:12.522Z,33.67
2023-03-22T10:59:58.362Z,33.02
2023-03-22T11:02:44.270Z,33.68
2023-03-22T11:05:30.226Z,33.56
2023-03-22T11:08:16.059Z,33.04
2023-03-22T11:11:02.013Z,32.95
2023-03-22T11:13:47.663Z,31.90
2023-03-22T11:16:33.628Z,30.83
2023-03-22T11:19:19.476Z,30.89
2023-03-22T11:22:05.375Z,30.23
2023-03-22T11:24:51.232Z,31.62
2023-03-22T11:27:37.059Z,28.12
2023-03-22T11:30:22.933Z,27.21
2023-03-22T11:33:09.083Z,27.69
2023-03-22T11:35:54.871Z,27.58
2023-03-22T11:38:40.830Z,26.46
2023-03-22T11:41:26.743Z,27.27
2023-03-22T11:44:12.655Z,26.19
2023-03-22T11:46:58.497Z,27.96
2023-03-22T11:49:44.322Z,28.53
2023-03-22T11:52:30.328Z,28.85
2023-03-22T11:55:16.230Z,27.94
2023-03-22T11:58:02.103Z,26.00
2023-03-22T12:00:47.978Z,30.54
2023-03-22T12:03:35.466Z,29.05
2023-03-22T12:06:22.843Z,29.71
2023-03-22T12:09:08.792Z,29.94
2023-03-22T12:11:54.634Z,29.07
2023-03-22T12:14:40.598Z,31.08
2023-03-22T12:17:26.522Z,28.02
2023-03-22T12:20:12.406Z,30.02
2023-03-22T12:22:58.307Z,31.54
2023-03-22T12:25:44.397Z,30.92
2023-03-22T12:28:30.233Z,31.38
2023-03-22T12:31:16.181Z,31.17
2023-03-22T12:34:02.050Z,31.41
2023-03-22T12:36:48.029Z,29.83
2023-03-22T12:39:33.944Z,28.45
2023-03-22T12:42:19.871Z,30.23
2023-03-22T12:45:06.002Z,29.36
2023-03-22T12:47:52.330Z,29.61
2023-03-22T12:50:38.813Z,30.38
2023-03-22T12:53:24.905Z,28.55
2023-03-22T12:56:10.798Z,28.05
2023-03-22T12:58:56.723Z,29.13
2023-03-22T13:01:42.819Z,30.17
2023-03-22T13:04:28.607Z,29.15
2023-03-22T13:07:14.525Z,30.16
2023-03-22T13:10:00.469Z,29.48
2023-03-22T13:12:46.357Z,28.43
2023-03-22T13:15:41.246Z,30.29
2023-03-22T13:18:27.921Z,29.48
2023-03-22T13:21:13.875Z,29.84
2023-03-22T13:23:59.672Z,29.62
2023-03-22T13:26:45.599Z,30.44
2023-03-22T13:29:31.939Z,29.71
2023-03-22T13:32:17.771Z,28.01
2023-03-22T13:35:03.740Z,29.28
2023-03-22T13:37:49.557Z,28.13
2023-03-22T13:40:35.582Z,27.96
2023-03-22T13:43:21.456Z,27.80
2023-03-22T13:46:07.336Z,27.86
2023-03-22T13:48:53.348Z,26.73
2023-03-22T13:51:39.772Z,28.23
2023-03-22T13:54:25.940Z,26.49
2023-03-22T13:57:11.782Z,26.68
2023-03-22T14:00:09.540Z,28.63
2023-03-22T14:02:57.448Z,26.90
2023-03-22T14:05:43.659Z,26.59
2023-03-22T14:08:29.561Z,26.22
2023-03-22T14:11:15.523Z,26.69
2023-03-22T14:14:01.310Z,26.00
2023-03-22T14:16:47.270Z,25.65
2023-03-22T14:19:33.281Z,25.92
